createdAt,value
2016-11-24T00:00:28.229Z,25.47
2016-11-24T00:01:08.898Z,25.5
2016-11-24T00:01:49.617Z,25.45
2016-11-24T00:02:30.250Z,25.45
2016-11-24T00:03:10.952Z,25.43
2016-11-24T00:03:51.640Z,25.47
2016-11-24T00:04:32.369Z,25.45
2016-11-24T00:05:13.057Z,25.4
2016-11-24T00:05:53.787Z,25.4
2016-11-24T00:06:34.501Z,25.51
2016-11-24T00:07:15.207Z,25.47
2016-11-24T00:07:55.897Z,25.45
2016-11-24T00:08:36.556Z,25.52
2016-11-24T00:09:17.247Z,25.5
2016-11-24T00:09:57.943Z,25.46
2016-11-24T00:10:38.653Z,25.46
2016-11-24T00:11:19.411Z,25.43
2016-11-24T00:12:00.095Z,25.4
2016-11-24T00:12:40.779Z,25.45
2016-11-24T00:13:21.472Z,25.42
2016-11-24T00:14:02.243Z,25.47
2016-11-24T00:14:42.952Z,25.33
2016-11-24T00:15:23.714Z,25.35
2016-11-24T00:16:04.435Z,25.39
2016-11-24T00:16:45.125Z,25.47
2016-11-24T00:17:25.862Z,25.33
2016-11-24T00:18:06.524Z,25.36
2016-11-24T00:18:47.232Z,25.43
2016-11-24T00:19:27.940Z,25.36
2016-11-24T00:20:08.615Z,25.39
2016-11-24T00:20:49.325Z,25.38
2016-11-24T00:21:30.014Z,25.35
2016-11-24T00:22:10.690Z,25.4
2016-11-24T00:22:51.433Z,25.36
2016-11-24T00:23:32.124Z,25.35
2016-11-24T00:24:12.823Z,25.28
2016-11-24T00:24:53.595Z,25.38
2016-11-24T00:25:34.269Z,25.32
2016-11-24T00:26:14.979Z,25.4
2016-11-24T00:26:55.652Z,25.39
2016-11-24T00:27:36.381Z,25.38
2016-11-24T00:28:17.075Z,25.36
2016-11-24T00:28:57.734Z,25.42
2016-11-24T00:29:38.470Z,25.38
2016-11-24T00:30:19.123Z,25.28
2016-11-24T00:30:59.916Z,25.36
2016-11-24T00:31:40.576Z,25.33
2016-11-24T00:32:21.229Z,25.32
2016-11-24T00:33:01.936Z,25.33
2016-11-24T00:33:42.631Z,25.38
2016-11-24T00:34:23.298Z,25.27
2016-11-24T00:35:04.023Z,25.35
2016-11-24T00:35:44.742Z,25.39
2016-11-24T00:36:25.436Z,25.23
2016-11-24T00:37:06.211Z,25.3
2016-11-24T00:37:46.895Z,25.35
2016-11-24T00:38:27.560Z,25.35
2016-11-24T00:39:08.253Z,25.28
2016-11-24T00:39:48.998Z,25.36
2016-11-24T00:40:29.652Z,25.35
2016-11-24T00:41:10.308Z,25.33
2016-11-24T00:41:51.009Z,25.32
2016-11-24T00:42:31.708Z,25.24
2016-11-24T00:43:12.396Z,25.28
2016-11-24T00:43:53.099Z,25.27
2016-11-24T00:44:33.793Z,25.28
2016-11-24T00:45:14.503Z,25.23
2016-11-24T00:45:55.186Z,25.21
2016-11-24T00:46:35.899Z,25.25
2016-11-24T00:47:16.609Z,25.3
2016-11-24T00:47:57.292Z,25.23
2016-11-24T00:48:37.956Z,25.33
2016-11-24T00:49:18.656Z,25.28
2016-11-24T00:49:59.450Z,25.23
2016-11-24T00:50:40.124Z,25.33
2016-11-24T00:51:20.849Z,25.25
2016-11-24T00:52:01.545Z,25.24
2016-11-24T00:52:42.241Z,25.33
2016-11-24T00:53:22.977Z,25.28
2016-11-24T00:54:03.651Z,25.27
2016-11-24T00:54:44.386Z,25.28
2016-11-24T00:55:25.085Z,25.24
2016-11-24T00:56:05.811Z,25.38
2016-11-24T00:56:46.518Z,25.24
2016-11-24T00:57:27.232Z,25.24
2016-11-24T00:58:07.882Z,25.28
2016-11-24T00:58:48.580Z,25.28
2016-11-24T00:59:29.291Z,25.27
2016-11-24T01:00:09.932Z,25.27
2016-11-24T01:00:50.598Z,25.33
2016-11-24T01:01:31.313Z,25.27
2016-11-24T01:02:12.068Z,25.2
2016-11-24T01:02:52.782Z,25.25
2016-11-24T01:03:33.460Z,25.3
2016-11-24T01:04:14.170Z,25.27
2016-11-24T01:04:54.895Z,25.25
2016-11-24T01:05:35.543Z,25.27
2016-11-24T01:06:16.199Z,25.27
2016-11-24T01:06:56.951Z,25.27
2016-11-24T01:07:37.654Z,25.23
2016-11-24T01:08:18.360Z,25.24
2016-11-24T01:08:59.061Z,25.24
2016-11-24T01:09:39.771Z,25.2
2016-11-24T01:10:20.423Z,25.18
2016-11-24T01:11:01.158Z,25.24
2016-11-24T01:11:41.918Z,25.18
2016-11-24T01:12:22.627Z,25.18
2016-11-24T01:13:03.230Z,25.32
2016-11-24T01:13:43.941Z,25.24
2016-11-24T01:14:24.627Z,25.24
2016-11-24T01:15:05.350Z,25.23
2016-11-24T01:15:45.997Z,25.15
2016-11-24T01:16:26.732Z,25.18
2016-11-24T01:17:07.424Z,25.25
2016-11-24T01:17:48.152Z,25.23
2016-11-24T01:18:28.845Z,25.23
2016-11-24T01:19:09.541Z,25.25
2016-11-24T01:19:50.172Z,25.27
2016-11-24T01:20:30.831Z,25.15
2016-11-24T01:21:11.538Z,25.21
2016-11-24T01:21:52.239Z,25.24
2016-11-24T01:22:32.886Z,25.14
2016-11-24T01:23:13.546Z,25.18
2016-11-24T01:23:54.229Z,25.23
2016-11-24T01:24:34.912Z,25.2
2016-11-24T01:25:15.588Z,25.24
2016-11-24T01:25:56.249Z,25.25
2016-11-24T01:26:36.900Z,25.23
2016-11-24T01:27:17.605Z,25.25
2016-11-24T01:27:58.252Z,25.18
2016-11-24T01:28:38.953Z,25.21
2016-11-24T01:29:19.680Z,25.1
2016-11-24T01:30:00.335Z,25.24
2016-11-24T01:30:40.999Z,25.21
2016-11-24T01:31:21.703Z,25.18
2016-11-24T01:32:02.427Z,25.18
2016-11-24T01:32:43.157Z,25.21
2016-11-24T01:33:23.807Z,25.18
2016-11-24T01:34:04.530Z,25.2
2016-11-24T01:34:45.208Z,25.21
2016-11-24T01:35:25.892Z,25.2
2016-11-24T01:36:06.575Z,25.14
2016-11-24T01:36:47.288Z,25.21
2016-11-24T01:37:28.020Z,25.18
2016-11-24T01:38:08.733Z,25.14
2016-11-24T01:38:49.402Z,25.13
2016-11-24T01:39:30.029Z,25.21
2016-11-24T01:40:10.784Z,25.15
2016-11-24T01:40:51.542Z,25.17
2016-11-24T01:41:32.276Z,25.2
2016-11-24T01:42:12.982Z,25.18
2016-11-24T01:42:53.672Z,25.13
2016-11-24T01:43:34.363Z,25.21
2016-11-24T01:44:15.038Z,25.15
2016-11-24T01:44:55.724Z,25.2
2016-11-24T01:45:36.472Z,25.2
2016-11-24T01:46:17.173Z,25.15
2016-11-24T01:46:57.880Z,25.1
2016-11-24T01:47:38.579Z,25.2
2016-11-24T01:48:19.235Z,25.2
2016-11-24T01:48:59.912Z,25.2
2016-11-24T01:49:40.564Z,25.14
2016-11-24T01:50:21.305Z,25.17
2016-11-24T01:51:01.989Z,25.1
2016-11-24T01:51:42.736Z,25.15
2016-11-24T01:52:23.438Z,25.18
2016-11-24T01:53:04.126Z,25.18
2016-11-24T01:53:44.857Z,25.18
2016-11-24T01:54:25.557Z,25.2
2016-11-24T01:55:06.250Z,25.2
2016-11-24T01:55:46.987Z,25.1
2016-11-24T01:56:27.668Z,25.18
2016-11-24T01:57:08.287Z,25.14
2016-11-24T01:57:49.023Z,25.13
2016-11-24T01:58:29.707Z,25.15
2016-11-24T01:59:10.376Z,25.13
2016-11-24T01:59:51.112Z,25.06
2016-11-24T02:00:31.862Z,25.1
2016-11-24T02:01:12.578Z,25.09
2016-11-24T02:01:53.263Z,25.06
2016-11-24T02:02:33.992Z,25.09
2016-11-24T02:03:14.747Z,25.06
2016-11-24T02:03:55.409Z,25.1
2016-11-24T02:04:36.116Z,25.06
2016-11-24T02:05:16.850Z,25.1
2016-11-24T02:05:57.599Z,25.13
2016-11-24T02:06:38.302Z,25.13
2016-11-24T02:07:19.021Z,25.08
2016-11-24T02:07:59.754Z,25.08
2016-11-24T02:08:40.462Z,25.1
2016-11-24T02:09:21.144Z,25.09
2016-11-24T02:10:01.833Z,25.08
2016-11-24T02:10:42.518Z,25.08
2016-11-24T02:11:23.162Z,25.06
2016-11-24T02:12:03.913Z,25.02
2016-11-24T02:12:44.606Z,25.09
2016-11-24T02:13:25.320Z,25.09
2016-11-24T02:14:05.985Z,25
2016-11-24T02:14:46.674Z,25
2016-11-24T02:15:27.383Z,25.06
2016-11-24T02:16:08.046Z,25.09
2016-11-24T02:16:48.761Z,25.09
2016-11-24T02:17:29.433Z,25.08
2016-11-24T02:18:10.159Z,25.08
2016-11-24T02:18:50.868Z,25.1
2016-11-24T02:19:31.537Z,25.09
2016-11-24T02:20:12.270Z,25.06
2016-11-24T02:20:52.969Z,25.06
2016-11-24T02:21:33.667Z,25.06
2016-11-24T02:22:14.360Z,25.06
2016-11-24T02:22:55.043Z,25.05
2016-11-24T02:23:35.731Z,25.08
2016-11-24T02:24:16.435Z,25.02
2016-11-24T02:24:57.138Z,25.05
2016-11-24T02:25:37.773Z,25
2016-11-24T02:26:18.482Z,25.13
2016-11-24T02:26:59.180Z,24.98
2016-11-24T02:27:39.892Z,25.02
2016-11-24T02:28:20.606Z,25.05
2016-11-24T02:29:01.305Z,25.02
2016-11-24T02:29:42.001Z,25
2016-11-24T02:30:22.705Z,24.96
2016-11-24T02:31:03.397Z,25.05
2016-11-24T02:31:44.081Z,25
2016-11-24T02:32:24.750Z,25.02
2016-11-24T02:33:05.447Z,24.93
2016-11-24T02:33:46.217Z,25.03
2016-11-24T02:34:26.895Z,25
2016-11-24T02:35:07.598Z,24.96
2016-11-24T02:35:48.310Z,24.98
2016-11-24T02:36:29.002Z,24.96
2016-11-24T02:37:09.714Z,24.96
2016-11-24T02:37:50.422Z,24.99
2016-11-24T02:38:31.135Z,24.96
2016-11-24T02:39:11.817Z,25.08
2016-11-24T02:39:52.515Z,25.03
2016-11-24T02:40:33.283Z,25.02
2016-11-24T02:41:14.022Z,24.96
2016-11-24T02:41:54.754Z,24.96
2016-11-24T02:42:35.409Z,24.95
2016-11-24T02:43:16.035Z,24.98
2016-11-24T02:43:56.797Z,24.96
2016-11-24T02:44:37.472Z,24.88
2016-11-24T02:45:18.147Z,24.91
2016-11-24T02:45:58.831Z,25
2016-11-24T02:46:39.581Z,25
2016-11-24T02:47:20.231Z,24.95
2016-11-24T02:48:00.907Z,25
2016-11-24T02:48:41.679Z,24.99
2016-11-24T02:49:22.427Z,24.96
2016-11-24T02:50:03.099Z,24.96
2016-11-24T02:50:43.820Z,24.99
2016-11-24T02:51:24.543Z,24.93
2016-11-24T02:52:05.292Z,24.88
2016-11-24T02:52:45.954Z,24.93
2016-11-24T02:53:26.705Z,24.9
2016-11-24T02:54:07.404Z,24.96
2016-11-24T02:54:48.085Z,24.9
2016-11-24T02:55:28.765Z,24.91
2016-11-24T02:56:09.530Z,24.9
2016-11-24T02:56:50.215Z,24.91
2016-11-24T02:57:30.943Z,24.93
2016-11-24T02:58:11.608Z,24.88
2016-11-24T02:58:52.236Z,24.93
2016-11-24T02:59:32.987Z,24.91
2016-11-24T03:00:13.648Z,24.95
2016-11-24T03:00:54.381Z,24.95
2016-11-24T03:01:35.064Z,24.93
2016-11-24T03:02:15.756Z,24.93
2016-11-24T03:02:56.429Z,24.87
2016-11-24T03:03:37.124Z,24.9
2016-11-24T03:04:17.833Z,24.91
2016-11-24T03:04:58.567Z,24.9
2016-11-24T03:05:39.251Z,24.93
2016-11-24T03:06:19.956Z,24.95
2016-11-24T03:07:00.636Z,24.91
2016-11-24T03:07:41.238Z,24.93
2016-11-24T03:08:21.925Z,24.93
2016-11-24T03:09:02.599Z,24.95
2016-11-24T03:09:43.412Z,24.98
2016-11-24T03:10:24.084Z,24.85
2016-11-24T03:11:04.810Z,24.88
2016-11-24T03:11:45.554Z,24.91
2016-11-24T03:12:26.231Z,24.9
2016-11-24T03:13:06.930Z,24.93
2016-11-24T03:13:47.633Z,24.95
2016-11-24T03:14:28.331Z,24.93
2016-11-24T03:15:08.999Z,24.87
2016-11-24T03:15:49.700Z,24.9
2016-11-24T03:16:30.474Z,24.91
2016-11-24T03:17:11.173Z,24.88
2016-11-24T03:17:51.854Z,24.9
2016-11-24T03:18:32.612Z,24.91
2016-11-24T03:19:13.268Z,24.91
2016-11-24T03:19:54.040Z,24.9
2016-11-24T03:20:34.688Z,24.93
2016-11-24T03:21:15.387Z,24.9
2016-11-24T03:21:56.120Z,24.88
2016-11-24T03:22:36.841Z,24.95
2016-11-24T03:23:17.572Z,24.9
2016-11-24T03:23:58.226Z,24.93
2016-11-24T03:24:38.887Z,24.87
2016-11-24T03:25:19.595Z,24.9
2016-11-24T03:26:00.298Z,24.88
2016-11-24T03:26:40.976Z,24.88
2016-11-24T03:27:21.725Z,24.9
2016-11-24T03:28:02.363Z,24.91
2016-11-24T03:28:43.094Z,24.95
2016-11-24T03:29:23.803Z,24.88
2016-11-24T03:30:04.467Z,24.85
2016-11-24T03:30:45.208Z,24.91
2016-11-24T03:31:25.929Z,24.88
2016-11-24T03:32:06.634Z,24.9
2016-11-24T03:32:47.288Z,24.9
2016-11-24T03:33:27.976Z,24.88
2016-11-24T03:34:08.632Z,24.96
2016-11-24T03:34:49.390Z,24.9
2016-11-24T03:35:30.068Z,24.9
2016-11-24T03:36:10.788Z,24.9
2016-11-24T03:36:51.498Z,24.9
2016-11-24T03:37:32.226Z,24.88
2016-11-24T03:38:12.939Z,24.87
2016-11-24T03:38:53.630Z,24.85
2016-11-24T03:39:34.414Z,24.95
2016-11-24T03:40:15.088Z,24.96
2016-11-24T03:40:55.801Z,24.93
2016-11-24T03:41:36.486Z,24.95
2016-11-24T03:42:17.146Z,24.9
2016-11-24T03:42:57.876Z,24.91
2016-11-24T03:43:38.550Z,24.9
2016-11-24T03:44:19.225Z,24.88
2016-11-24T03:44:59.970Z,24.91
2016-11-24T03:45:40.674Z,24.85
2016-11-24T03:46:21.370Z,24.88
2016-11-24T03:47:02.091Z,24.9
2016-11-24T03:47:42.792Z,24.88
2016-11-24T03:48:23.509Z,24.91
2016-11-24T03:49:04.253Z,24.87
2016-11-24T03:49:44.962Z,24.84
2016-11-24T03:50:25.636Z,24.91
2016-11-24T03:51:06.304Z,24.91
2016-11-24T03:51:46.948Z,24.9
2016-11-24T03:52:27.659Z,24.95
2016-11-24T03:53:08.375Z,24.96
2016-11-24T03:53:49.036Z,24.88
2016-11-24T03:54:29.770Z,24.91
2016-11-24T03:55:10.459Z,24.88
2016-11-24T03:55:51.179Z,24.83
2016-11-24T03:56:31.846Z,24.9
2016-11-24T03:57:12.593Z,24.91
2016-11-24T03:57:53.298Z,24.83
2016-11-24T03:58:34.029Z,24.88
2016-11-24T03:59:14.697Z,24.91
2016-11-24T03:59:55.415Z,24.91
2016-11-24T04:00:36.116Z,24.93
2016-11-24T04:01:16.824Z,24.91
2016-11-24T04:01:57.518Z,24.85
2016-11-24T04:02:38.232Z,24.87
2016-11-24T04:03:18.888Z,24.9
2016-11-24T04:03:59.565Z,24.95
2016-11-24T04:04:40.294Z,24.9
2016-11-24T04:05:20.984Z,24.88
2016-11-24T04:06:01.678Z,24.87
2016-11-24T04:06:42.402Z,24.93
2016-11-24T04:07:23.077Z,24.88
2016-11-24T04:08:03.764Z,24.85
2016-11-24T04:08:44.490Z,24.91
2016-11-24T04:09:25.168Z,24.9
2016-11-24T04:10:05.867Z,24.85
2016-11-24T04:10:46.528Z,24.88
2016-11-24T04:11:27.212Z,24.85
2016-11-24T04:12:07.867Z,24.9
2016-11-24T04:12:48.591Z,24.84
2016-11-24T04:13:29.281Z,24.88
2016-11-24T04:14:09.959Z,24.85
2016-11-24T04:14:50.624Z,24.93
2016-11-24T04:15:31.322Z,24.77
2016-11-24T04:16:11.999Z,24.78
2016-11-24T04:16:52.685Z,24.88
2016-11-24T04:17:33.399Z,24.84
2016-11-24T04:18:14.134Z,24.77
2016-11-24T04:18:54.852Z,24.85
2016-11-24T04:19:35.550Z,24.88
2016-11-24T04:20:16.232Z,24.71
2016-11-24T04:20:56.936Z,24.78
2016-11-24T04:21:37.657Z,24.85
2016-11-24T04:22:18.404Z,24.78
2016-11-24T04:22:59.065Z,24.76
2016-11-24T04:23:39.740Z,24.85
2016-11-24T04:24:20.362Z,24.76
2016-11-24T04:25:01.006Z,24.77
2016-11-24T04:25:41.759Z,24.73
2016-11-24T04:26:22.449Z,24.8
2016-11-24T04:27:03.110Z,24.77
2016-11-24T04:27:43.846Z,24.73
2016-11-24T04:28:24.557Z,24.88
2016-11-24T04:29:05.227Z,24.76
2016-11-24T04:29:45.948Z,24.85
2016-11-24T04:30:26.620Z,24.73
2016-11-24T04:31:07.338Z,24.8
2016-11-24T04:31:48.019Z,24.73
2016-11-24T04:32:28.730Z,24.85
2016-11-24T04:33:09.408Z,24.8
2016-11-24T04:33:50.141Z,24.9
2016-11-24T04:34:30.869Z,24.73
2016-11-24T04:35:11.525Z,24.77
2016-11-24T04:35:52.163Z,24.76
2016-11-24T04:36:32.912Z,24.77
2016-11-24T04:37:13.563Z,24.77
2016-11-24T04:37:54.289Z,24.77
2016-11-24T04:38:34.995Z,24.71
2016-11-24T04:39:15.702Z,24.8
2016-11-24T04:39:56.399Z,24.73
2016-11-24T04:40:37.060Z,24.71
2016-11-24T04:41:17.741Z,24.71
2016-11-24T04:41:58.395Z,24.81
2016-11-24T04:42:39.038Z,24.77
2016-11-24T04:43:19.732Z,24.91
2016-11-24T04:44:00.485Z,24.76
2016-11-24T04:44:41.104Z,24.83
2016-11-24T04:45:21.759Z,24.85
2016-11-24T04:46:02.422Z,24.77
2016-11-24T04:46:43.104Z,24.77
2016-11-24T04:47:23.862Z,24.76
2016-11-24T04:48:04.539Z,24.73
2016-11-24T04:48:45.255Z,24.71
2016-11-24T04:49:25.980Z,24.71
2016-11-24T04:50:06.632Z,24.77
2016-11-24T04:50:47.352Z,24.8
2016-11-24T04:51:28.050Z,24.8
2016-11-24T04:52:08.758Z,24.81
2016-11-24T04:52:49.440Z,24.78
2016-11-24T04:53:30.120Z,24.8
2016-11-24T04:54:10.815Z,24.76
2016-11-24T04:54:51.488Z,24.84
2016-11-24T04:55:32.230Z,24.77
2016-11-24T04:56:12.920Z,24.73
2016-11-24T04:56:53.574Z,24.76
2016-11-24T04:57:34.277Z,24.76
2016-11-24T04:58:14.936Z,24.71
2016-11-24T04:58:55.621Z,24.71
2016-11-24T04:59:36.359Z,24.71
2016-11-24T05:00:17.122Z,24.81
2016-11-24T05:00:57.830Z,24.77
2016-11-24T05:01:38.562Z,24.76
2016-11-24T05:02:19.220Z,24.71
2016-11-24T05:02:59.940Z,24.76
2016-11-24T05:03:40.653Z,24.76
2016-11-24T05:04:21.353Z,24.77
2016-11-24T05:05:02.064Z,24.8
2016-11-24T05:05:42.807Z,24.76
2016-11-24T05:06:23.491Z,24.81
2016-11-24T05:07:04.142Z,24.71
2016-11-24T05:07:44.827Z,24.8
2016-11-24T05:08:25.592Z,24.77
2016-11-24T05:09:06.305Z,24.77
2016-11-24T05:09:47.056Z,24.76
2016-11-24T05:10:27.696Z,24.85
2016-11-24T05:11:08.418Z,24.77
2016-11-24T05:11:49.064Z,24.78
2016-11-24T05:12:29.727Z,24.83
2016-11-24T05:13:10.402Z,24.77
2016-11-24T05:13:51.064Z,24.71
2016-11-24T05:14:31.722Z,24.76
2016-11-24T05:15:12.396Z,24.73
2016-11-24T05:15:53.096Z,24.76
2016-11-24T05:16:33.770Z,24.8
2016-11-24T05:17:14.455Z,24.71
2016-11-24T05:17:55.112Z,24.68
2016-11-24T05:18:35.844Z,24.69
2016-11-24T05:19:16.594Z,24.8
2016-11-24T05:19:57.311Z,24.71
2016-11-24T05:20:38.036Z,24.69
2016-11-24T05:21:18.717Z,24.78
2016-11-24T05:21:59.395Z,24.61
2016-11-24T05:22:40.031Z,24.62
2016-11-24T05:23:20.720Z,24.76
2016-11-24T05:24:01.410Z,24.65
2016-11-24T05:24:42.074Z,24.64
2016-11-24T05:25:22.810Z,24.6
2016-11-24T05:26:03.480Z,24.76
2016-11-24T05:26:44.181Z,24.62
2016-11-24T05:27:24.879Z,24.64
2016-11-24T05:28:05.599Z,24.65
2016-11-24T05:28:46.282Z,24.6
2016-11-24T05:29:27.035Z,24.62
2016-11-24T05:30:07.774Z,24.64
2016-11-24T05:30:48.463Z,24.64
2016-11-24T05:31:29.166Z,24.6
2016-11-24T05:32:09.847Z,24.69
2016-11-24T05:32:50.603Z,24.73
2016-11-24T05:33:31.331Z,24.64
2016-11-24T05:34:12.031Z,24.71
2016-11-24T05:34:52.751Z,24.62
2016-11-24T05:35:33.510Z,24.62
2016-11-24T05:36:14.119Z,24.62
2016-11-24T05:36:54.794Z,24.62
2016-11-24T05:37:35.491Z,24.62
2016-11-24T05:38:16.211Z,24.61
2016-11-24T05:38:56.902Z,24.76
2016-11-24T05:39:37.569Z,24.62
2016-11-24T05:40:18.229Z,24.61
2016-11-24T05:40:58.929Z,24.67
2016-11-24T05:41:39.617Z,24.69
2016-11-24T05:42:20.324Z,24.68
2016-11-24T05:43:01.022Z,24.73
2016-11-24T05:43:41.674Z,24.65
2016-11-24T05:44:22.393Z,24.61
2016-11-24T05:45:03.148Z,24.73
2016-11-24T05:45:43.815Z,24.68
2016-11-24T05:46:24.467Z,24.57
2016-11-24T05:47:05.219Z,24.68
2016-11-24T05:47:45.898Z,24.71
2016-11-24T05:48:26.561Z,24.64
2016-11-24T05:49:07.215Z,24.67
2016-11-24T05:49:47.890Z,24.68
2016-11-24T05:50:28.598Z,24.62
2016-11-24T05:51:09.211Z,24.73
2016-11-24T05:51:49.877Z,24.6
2016-11-24T05:52:30.564Z,24.64
2016-11-24T05:53:11.253Z,24.6
2016-11-24T05:53:52.018Z,24.61
2016-11-24T05:54:32.726Z,24.64
2016-11-24T05:55:13.445Z,24.65
2016-11-24T05:55:54.124Z,24.67
2016-11-24T05:56:34.860Z,24.71
2016-11-24T05:57:15.513Z,24.62
2016-11-24T05:57:56.206Z,24.69
2016-11-24T05:58:36.875Z,24.69
2016-11-24T05:59:17.595Z,24.69
2016-11-24T05:59:58.344Z,24.64
2016-11-24T06:00:39.083Z,24.61
2016-11-24T06:01:19.831Z,24.67
2016-11-24T06:02:00.569Z,24.68
2016-11-24T06:02:41.213Z,24.62
2016-11-24T06:03:21.903Z,24.64
2016-11-24T06:04:02.625Z,24.6
2016-11-24T06:04:43.409Z,24.61
2016-11-24T06:05:24.151Z,24.69
2016-11-24T06:06:04.864Z,24.62
2016-11-24T06:06:45.607Z,24.58
2016-11-24T06:07:26.323Z,24.62
2016-11-24T06:08:07.003Z,24.61
2016-11-24T06:08:47.666Z,24.67
2016-11-24T06:09:28.347Z,24.65
2016-11-24T06:10:09.105Z,24.62
2016-11-24T06:10:49.831Z,24.69
2016-11-24T06:11:30.503Z,24.69
2016-11-24T06:12:11.226Z,24.69
2016-11-24T06:12:51.876Z,24.68
2016-11-24T06:13:32.596Z,24.6
2016-11-24T06:14:13.295Z,24.62
2016-11-24T06:14:54.001Z,24.61
2016-11-24T06:15:34.691Z,24.62
2016-11-24T06:16:15.408Z,24.69
2016-11-24T06:16:56.107Z,24.68
2016-11-24T06:17:36.814Z,24.61
2016-11-24T06:18:17.497Z,24.6
2016-11-24T06:18:58.176Z,24.68
2016-11-24T06:19:38.864Z,24.69
2016-11-24T06:20:19.542Z,24.6
2016-11-24T06:21:00.302Z,24.69
2016-11-24T06:21:40.991Z,24.67
2016-11-24T06:22:21.646Z,24.6
2016-11-24T06:23:02.410Z,24.65
2016-11-24T06:23:43.053Z,24.65
2016-11-24T06:24:23.717Z,24.61
2016-11-24T06:25:04.421Z,24.65
2016-11-24T06:25:45.142Z,24.58
2016-11-24T06:26:25.831Z,24.67
2016-11-24T06:27:06.571Z,24.65
2016-11-24T06:27:47.255Z,24.68
2016-11-24T06:28:27.940Z,24.62
2016-11-24T06:29:08.641Z,24.68
2016-11-24T06:29:49.299Z,24.65
2016-11-24T06:30:30.016Z,24.69
2016-11-24T06:31:10.733Z,24.69
2016-11-24T06:31:51.396Z,24.67
2016-11-24T06:32:32.060Z,24.68
2016-11-24T06:33:12.740Z,24.65
2016-11-24T06:33:53.466Z,24.69
2016-11-24T06:34:34.226Z,24.64
2016-11-24T06:35:14.901Z,24.65
2016-11-24T06:35:55.624Z,24.6
2016-11-24T06:36:36.339Z,24.6
2016-11-24T06:37:17.006Z,24.69
2016-11-24T06:37:57.649Z,24.67
2016-11-24T06:38:38.335Z,24.62
2016-11-24T06:39:19.068Z,24.68
2016-11-24T06:39:59.764Z,24.61
2016-11-24T06:40:40.550Z,24.64
2016-11-24T06:41:21.256Z,24.62
2016-11-24T06:42:01.986Z,24.69
2016-11-24T06:42:42.696Z,24.61
2016-11-24T06:43:23.351Z,24.68
2016-11-24T06:44:04.055Z,24.68
2016-11-24T06:44:44.781Z,24.68
2016-11-24T06:45:25.451Z,24.58
2016-11-24T06:46:06.147Z,24.58
2016-11-24T06:46:46.825Z,24.62
2016-11-24T06:47:27.473Z,24.67
2016-11-24T06:48:08.200Z,24.69
2016-11-24T06:48:48.848Z,24.6
2016-11-24T06:49:29.500Z,24.64
2016-11-24T06:50:10.219Z,24.58
2016-11-24T06:50:50.869Z,24.68
2016-11-24T06:51:31.530Z,24.6
2016-11-24T06:52:12.222Z,24.61
2016-11-24T06:52:52.927Z,24.64
2016-11-24T06:53:33.675Z,24.64
2016-11-24T06:54:14.348Z,24.62
2016-11-24T06:54:55.033Z,24.62
2016-11-24T06:55:35.743Z,24.68
2016-11-24T06:56:16.510Z,24.69
2016-11-24T06:56:57.152Z,24.64
2016-11-24T06:57:37.858Z,24.64
2016-11-24T06:58:18.614Z,24.64
2016-11-24T06:58:59.301Z,24.61
2016-11-24T06:59:39.994Z,24.68
2016-11-24T07:00:20.711Z,24.62
2016-11-24T07:01:01.445Z,24.77
2016-11-24T07:01:42.131Z,24.61
2016-11-24T07:02:22.793Z,24.62
2016-11-24T07:03:03.543Z,24.65
2016-11-24T07:03:44.197Z,24.61
2016-11-24T07:04:24.883Z,24.65
2016-11-24T07:05:05.611Z,24.62
2016-11-24T07:05:46.317Z,24.58
2016-11-24T07:06:27.118Z,24.68
2016-11-24T07:07:07.811Z,24.58
2016-11-24T07:07:48.531Z,24.61
2016-11-24T07:08:29.205Z,24.65
2016-11-24T07:09:09.903Z,24.61
2016-11-24T07:09:50.634Z,24.67
2016-11-24T07:10:31.329Z,24.64
2016-11-24T07:11:12.043Z,24.62
2016-11-24T07:11:52.748Z,24.61
2016-11-24T07:12:33.418Z,24.64
2016-11-24T07:13:14.166Z,24.67
2016-11-24T07:13:54.883Z,24.64
2016-11-24T07:14:35.528Z,24.61
2016-11-24T07:15:16.249Z,24.68
2016-11-24T07:15:56.946Z,24.65
2016-11-24T07:16:37.620Z,24.64
2016-11-24T07:17:18.282Z,24.61
2016-11-24T07:17:59.067Z,24.61
2016-11-24T07:18:39.854Z,24.65
2016-11-24T07:19:20.547Z,24.55
2016-11-24T07:20:01.185Z,24.55
2016-11-24T07:20:41.878Z,24.62
2016-11-24T07:21:22.621Z,24.57
2016-11-24T07:22:03.323Z,24.46
2016-11-24T07:22:44.013Z,24.34
2016-11-24T07:23:24.718Z,24.45
2016-11-24T07:24:05.427Z,24.52
2016-11-24T07:24:46.107Z,24.49
2016-11-24T07:25:26.790Z,24.65
2016-11-24T07:26:07.477Z,24.62
2016-11-24T07:26:48.193Z,24.61
2016-11-24T07:27:28.944Z,24.76
2016-11-24T07:28:09.638Z,24.78
2016-11-24T07:28:50.300Z,24.88
2016-11-24T07:29:31.006Z,24.87
2016-11-24T07:30:11.742Z,24.91
2016-11-24T07:30:52.486Z,24.96
2016-11-24T07:31:33.147Z,24.95
2016-11-24T07:32:13.903Z,25.05
2016-11-24T07:32:54.584Z,25.1
2016-11-24T07:33:35.271Z,25.14
2016-11-24T07:34:16.132Z,25.14
2016-11-24T07:34:56.941Z,25.27
2016-11-24T07:35:37.604Z,25.23
2016-11-24T07:36:18.299Z,25.3
2016-11-24T07:36:59.026Z,25.3
2016-11-24T07:37:39.734Z,25.32
2016-11-24T07:38:20.392Z,25.36
2016-11-24T07:39:01.069Z,25.39
2016-11-24T07:39:41.768Z,25.51
2016-11-24T07:40:22.500Z,25.51
2016-11-24T07:41:03.205Z,25.46
2016-11-24T07:41:43.907Z,25.58
2016-11-24T07:42:24.663Z,25.65
2016-11-24T07:43:05.350Z,25.61
2016-11-24T07:43:46.036Z,25.69
2016-11-24T07:44:26.731Z,25.72
2016-11-24T07:45:07.416Z,25.72
2016-11-24T07:45:48.115Z,25.8
2016-11-24T07:46:28.900Z,25.83
2016-11-24T07:47:09.629Z,25.9
2016-11-24T07:47:50.350Z,25.92
2016-11-24T07:48:31.003Z,25.94
2016-11-24T07:49:11.700Z,25.91
2016-11-24T07:49:52.381Z,26.06
2016-11-24T07:50:33.109Z,25.99
2016-11-24T07:51:13.823Z,25.99
2016-11-24T07:51:54.530Z,26.01
2016-11-24T07:52:35.243Z,26.07
2016-11-24T07:53:16.048Z,26.09
2016-11-24T07:53:56.767Z,26.13
2016-11-24T07:54:37.466Z,26.18
2016-11-24T07:55:18.161Z,26.2
2016-11-24T07:55:58.919Z,26.18
2016-11-24T07:56:39.660Z,26.26
2016-11-24T07:57:20.397Z,26.21
2016-11-24T07:58:01.127Z,26.18
2016-11-24T07:58:41.812Z,26.23
2016-11-24T07:59:22.528Z,26.35
2016-11-24T08:00:03.223Z,26.32
2016-11-24T08:00:43.915Z,26.32
2016-11-24T08:01:24.615Z,26.32
2016-11-24T08:02:05.284Z,26.33
2016-11-24T08:02:45.994Z,26.32
2016-11-24T08:03:26.687Z,26.3
2016-11-24T08:04:07.379Z,26.36
2016-11-24T08:04:48.101Z,26.37
2016-11-24T08:05:28.771Z,26.4
2016-11-24T08:06:09.494Z,26.44
2016-11-24T08:06:50.201Z,26.4
2016-11-24T08:07:30.867Z,26.51
2016-11-24T08:08:11.572Z,26.54
2016-11-24T08:08:52.287Z,26.52
2016-11-24T08:09:33.101Z,26.54
2016-11-24T08:10:13.807Z,26.58
2016-11-24T08:10:54.494Z,26.6
2016-11-24T08:11:35.185Z,26.57
2016-11-24T08:12:15.901Z,26.58
2016-11-24T08:12:56.585Z,26.62
2016-11-24T08:13:37.303Z,26.58
2016-11-24T08:14:18.010Z,26.63
2016-11-24T08:14:58.744Z,26.66
2016-11-24T08:15:39.427Z,26.69
2016-11-24T08:16:20.089Z,26.73
2016-11-24T08:17:00.845Z,26.65
2016-11-24T08:17:41.557Z,26.75
2016-11-24T08:18:22.339Z,26.7
2016-11-24T08:19:03.016Z,26.72
2016-11-24T08:19:43.760Z,26.72
2016-11-24T08:20:24.466Z,26.69
2016-11-24T08:21:05.195Z,26.77
2016-11-24T08:21:45.871Z,26.73
2016-11-24T08:22:26.651Z,26.66
2016-11-24T08:23:08.233Z,26.77
2016-11-24T08:23:48.036Z,26.84
2016-11-24T08:24:28.719Z,26.81
2016-11-24T08:25:09.432Z,26.81
2016-11-24T08:25:50.896Z,26.88
2016-11-24T08:26:31.562Z,26.88
2016-11-24T08:27:12.289Z,26.91
2016-11-24T08:27:53.045Z,26.85
2016-11-24T08:28:33.719Z,26.82
2016-11-24T08:29:14.481Z,26.81
2016-11-24T08:29:55.250Z,26.81
2016-11-24T08:30:35.982Z,26.89
2016-11-24T08:31:16.665Z,26.92
2016-11-24T08:31:57.363Z,26.99
2016-11-24T08:32:38.060Z,26.94
2016-11-24T08:33:18.817Z,26.94
2016-11-24T08:33:59.520Z,27.02
2016-11-24T08:34:40.255Z,27.07
2016-11-24T08:35:21.043Z,27.06
2016-11-24T08:36:01.744Z,27.04
2016-11-24T08:36:42.458Z,27.12
2016-11-24T08:37:23.182Z,27.09
2016-11-24T08:38:03.884Z,27.1
2016-11-24T08:38:44.543Z,27.1
2016-11-24T08:39:25.287Z,27.17
2016-11-24T08:40:05.958Z,27.22
2016-11-24T08:40:46.682Z,27.12
2016-11-24T08:41:27.343Z,27.17
2016-11-24T08:42:08.076Z,27.19
2016-11-24T08:42:48.785Z,27.22
2016-11-24T08:43:29.445Z,27.24
2016-11-24T08:44:10.125Z,27.19
2016-11-24T08:44:50.841Z,27.22
2016-11-24T08:45:31.531Z,27.24
2016-11-24T08:46:12.198Z,27.27
2016-11-24T08:46:52.894Z,27.25